sensor_id;sensor_type;location;lat;lon;timestamp;P1;durP1;ratioP1;P2;durP2;ratioP2
17193;SDS011;8713;48.388;10.928;2024-01-15T00:00:18;11.73;;;5.28;;
17193;SDS011;8713;48.388;10.928;2024-01-15T00:01:47;10.63;;;4.97;;
17193;SDS011;8713;48.388;10.928;2024-01-15T00:03:17;8.63;;;3.80;;
17193;SDS011;8713;48.388;10.928;2024-01-15T00:04:47;9.32;;;4.28;;
17193;SDS011;8713;48.388;10.928;2024-01-15T00:06:16;11.48;;;5.45;;
17193;SDS011;8713;48.388;10.928;2024-01-15T00:07:46;12.07;;;5.60;;
17193;SDS011;8713;48.388;10.928;2024-01-15T00:09:15;10.80;;;5.88;;
17193;SDS011;8713;48.388;10.928;2024-01-15T00:10:45;13.23;;;5.82;;
17193;SDS011;8713;48.388;10.928;2024-01-15T00:12:15;11.48;;;5.68;;
17193;SDS011;8713;48.388;10.928;2024-01-15T00:13:44;9.85;;;4.90;;
17193;SDS011;8713;48.388;10.928;2024-01-15T00:15:14;10.38;;;4.20;;
17193;SDS011;8713;48.388;10.928;2024-01-15T00:16:43;10.90;;;5.15;;
17193;SDS011;8713;48.388;10.928;2024-01-15T00:18:13;10.85;;;4.30;;
17193;SDS011;8713;48.388;10.928;2024-01-15T00:19:42;13.30;;;6.20;;
17193;SDS011;8713;48.388;10.928;2024-01-15T00:21:12;13.65;;;6.20;;
17193;SDS011;8713;48.388;10.928;2024-01-15T00:22:41;11.85;;;5.30;;
17193;SDS011;8713;48.388;10.928;2024-01-15T00:24:11;12.73;;;5.38;;
17193;SDS011;8713;48.388;10.928;2024-01-15T00:25:41;12.40;;;5.07;;
17193;SDS011;8713;48.388;10.928;2024-01-15T00:27:11;9.80;;;4.60;;
17193;SDS011;8713;48.388;10.928;2024-01-15T00:28:40;8.23;;;3.78;;
17193;SDS011;8713;48.388;10.928;2024-01-15T00:30:10;13.10;;;5.70;;
17193;SDS011;8713;48.388;10.928;2024-01-15T00:31:40;10.50;;;4.82;;
17193;SDS011;8713;48.388;10.928;2024-01-15T00:33:09;14.98;;;5.57;;
17193;SDS011;8713;48.388;10.928;2024-01-15T00:34:41;11.75;;;5.30;;
17193;SDS011;8713;48.388;10.928;2024-01-15T00:36:10;13.77;;;5.55;;
17193;SDS011;8713;48.388;10.928;2024-01-15T00:37:40;11.10;;;3.70;;
17193;SDS011;8713;48.388;10.928;2024-01-15T00:39:10;11.55;;;5.10;;
17193;SDS011;8713;48.388;10.928;2024-01-15T00:40:39;14.80;;;5.50;;
17193;SDS011;8713;48.388;10.928;2024-01-15T00:42:09;12.18;;;6.00;;
17193;SDS011;8713;48.388;10.928;2024-01-15T00:43:38;12.38;;;5.35;;
17193;SDS011;8713;48.388;10.928;2024-01-15T00:45:08;12.27;;;4.82;;
17193;SDS011;8713;48.388;10.928;2024-01-15T00:46:42;12.15;;;5.55;;
17193;SDS011;8713;48.388;10.928;2024-01-15T00:48:14;10.15;;;4.72;;
17193;SDS011;8713;48.388;10.928;2024-01-15T00:49:44;10.45;;;4.50;;
17193;SDS011;8713;48.388;10.928;2024-01-15T00:51:14;9.77;;;5.05;;
17193;SDS011;8713;48.388;10.928;2024-01-15T00:52:44;12.65;;;5.88;;
17193;SDS011;8713;48.388;10.928;2024-01-15T00:54:13;12.13;;;4.88;;
17193;SDS011;8713;48.388;10.928;2024-01-15T00:55:42;12.30;;;5.57;;
17193;SDS011;8713;48.388;10.928;2024-01-15T00:57:12;11.82;;;5.88;;
17193;SDS011;8713;48.388;10.928;2024-01-15T00:58:42;12.05;;;5.63;;
17193;SDS011;8713;48.388;10.928;2024-01-15T01:00:11;10.85;;;5.45;;
17193;SDS011;8713;48.388;10.928;2024-01-15T01:01:42;12.43;;;5.87;;
17193;SDS011;8713;48.388;10.928;2024-01-15T01:03:12;13.63;;;4.95;;
17193;SDS011;8713;48.388;10.928;2024-01-15T01:04:42;11.52;;;5.45;;
17193;SDS011;8713;48.388;10.928;2024-01-15T01:06:11;10.93;;;5.00;;
17193;SDS011;8713;48.388;10.928;2024-01-15T01:07:40;12.50;;;5.75;;
17193;SDS011;8713;48.388;10.928;2024-01-15T01:09:10;10.50;;;4.72;;
17193;SDS011;8713;48.388;10.928;2024-01-15T01:10:40;11.35;;;5.68;;
17193;SDS011;8713;48.388;10.928;2024-01-15T01:12:12;11.55;;;5.47;;
17193;SDS011;8713;48.388;10.928;2024-01-15T01:13:41;11.77;;;5.22;;
17193;SDS011;8713;48.388;10.928;2024-01-15T01:15:11;9.77;;;4.65;;
17193;SDS011;8713;48.388;10.928;2024-01-15T01:16:41;9.60;;;4.38;;
17193;SDS011;8713;48.388;10.928;2024-01-15T01:18:11;11.52;;;5.45;;
17193;SDS011;8713;48.388;10.928;2024-01-15T01:19:41;9.15;;;4.63;;
17193;SDS011;8713;48.388;10.928;2024-01-15T01:21:10;10.15;;;5.07;;
17193;SDS011;8713;48.388;10.928;2024-01-15T01:22:39;9.15;;;4.75;;
17193;SDS011;8713;48.388;10.928;2024-01-15T01:24:09;11.50;;;5.07;;
17193;SDS011;8713;48.388;10.928;2024-01-15T01:25:39;11.45;;;5.60;;
17193;SDS011;8713;48.388;10.928;2024-01-15T01:27:08;12.80;;;5.00;;
17193;SDS011;8713;48.388;10.928;2024-01-15T01:28:38;9.60;;;5.03;;
17193;SDS011;8713;48.388;10.928;2024-01-15T01:30:08;12.80;;;5.63;;
17193;SDS011;8713;48.388;10.928;2024-01-15T01:31:42;11.57;;;5.05;;
17193;SDS011;8713;48.388;10.928;2024-01-15T01:33:14;10.73;;;4.72;;
17193;SDS011;8713;48.388;10.928;2024-01-15T01:34:44;10.45;;;5.03;;
17193;SDS011;8713;48.388;10.928;2024-01-15T01:36:13;10.68;;;5.30;;
17193;SDS011;8713;48.388;10.928;2024-01-15T01:37:43;10.40;;;4.93;;
17193;SDS011;8713;48.388;10.928;2024-01-15T01:39:12;13.77;;;5.45;;
17193;SDS011;8713;48.388;10.928;2024-01-15T01:40:42;9.02;;;4.70;;
17193;SDS011;8713;48.388;10.928;2024-01-15T01:42:11;13.73;;;5.03;;
17193;SDS011;8713;48.388;10.928;2024-01-15T01:43:41;9.73;;;5.18;;
17193;SDS011;8713;48.388;10.928;2024-01-15T01:45:11;10.43;;;4.80;;
17193;SDS011;8713;48.388;10.928;2024-01-15T01:46:41;9.45;;;4.57;;
17193;SDS011;8713;48.388;10.928;2024-01-15T01:48:11;9.55;;;4.78;;
17193;SDS011;8713;48.388;10.928;2024-01-15T01:49:40;9.98;;;5.07;;
17193;SDS011;8713;48.388;10.928;2024-01-15T01:51:10;9.60;;;4.25;;
17193;SDS011;8713;48.388;10.928;2024-01-15T01:52:40;10.05;;;4.28;;
17193;SDS011;8713;48.388;10.928;2024-01-15T01:54:10;12.82;;;5.47;;
17193;SDS011;8713;48.388;10.928;2024-01-15T01:55:43;12.90;;;5.05;;
17193;SDS011;8713;48.388;10.928;2024-01-15T01:57:13;12.15;;;5.18;;
17193;SDS011;8713;48.388;10.928;2024-01-15T01:58:43;11.88;;;4.95;;
17193;SDS011;8713;48.388;10.928;2024-01-15T02:00:14;10.60;;;4.60;;
17193;SDS011;8713;48.388;10.928;2024-01-15T02:01:44;9.57;;;4.43;;
17193;SDS011;8713;48.388;10.928;2024-01-15T02:03:14;9.50;;;4.32;;
17193;SDS011;8713;48.388;10.928;2024-01-15T02:04:44;9.32;;;4.13;;
17193;SDS011;8713;48.388;10.928;2024-01-15T02:06:14;10.25;;;4.43;;
17193;SDS011;8713;48.388;10.928;2024-01-15T02:07:43;9.85;;;4.70;;
17193;SDS011;8713;48.388;10.928;2024-01-15T02:09:13;12.63;;;4.93;;
17193;SDS011;8713;48.388;10.928;2024-01-15T02:10:44;10.13;;;5.10;;
17193;SDS011;8713;48.388;10.928;2024-01-15T02:12:13;10.32;;;4.40;;
17193;SDS011;8713;48.388;10.928;2024-01-15T02:13:43;9.75;;;4.18;;
17193;SDS011;8713;48.388;10.928;2024-01-15T02:15:12;9.82;;;4.65;;
17193;SDS011;8713;48.388;10.928;2024-01-15T02:16:42;9.93;;;4.45;;
17193;SDS011;8713;48.388;10.928;2024-01-15T02:18:12;10.25;;;4.38;;
17193;SDS011;8713;48.388;10.928;2024-01-15T02:19:41;12.90;;;5.22;;
17193;SDS011;8713;48.388;10.928;2024-01-15T02:21:11;9.40;;;4.50;;
17193;SDS011;8713;48.388;10.928;2024-01-15T02:22:41;10.45;;;3.83;;
17193;SDS011;8713;48.388;10.928;2024-01-15T02:24:11;7.35;;;3.53;;
17193;SDS011;8713;48.388;10.928;2024-01-15T02:25:41;8.70;;;3.30;;
17193;SDS011;8713;48.388;10.928;2024-01-15T02:27:15;9.55;;;3.78;;
17193;SDS011;8713;48.388;10.928;2024-01-15T02:28:45;8.48;;;3.83;;
17193;SDS011;8713;48.388;10.928;2024-01-15T02:30:14;8.50;;;3.75;;
17193;SDS011;8713;48.388;10.928;2024-01-15T02:31:44;8.50;;;3.45;;
17193;SDS011;8713;48.388;10.928;2024-01-15T02:33:14;8.38;;;3.72;;
17193;SDS011;8713;48.388;10.928;2024-01-15T02:34:44;9.30;;;4.30;;
17193;SDS011;8713;48.388;10.928;2024-01-15T02:36:14;8.45;;;3.78;;
17193;SDS011;8713;48.388;10.928;2024-01-15T02:37:45;9.48;;;4.43;;
17193;SDS011;8713;48.388;10.928;2024-01-15T02:39:14;9.98;;;2.83;;
17193;SDS011;8713;48.388;10.928;2024-01-15T02:40:44;9.05;;;4.25;;
17193;SDS011;8713;48.388;10.928;2024-01-15T02:42:14;8.20;;;3.28;;
17193;SDS011;8713;48.388;10.928;2024-01-15T02:43:43;7.72;;;3.70;;
17193;SDS011;8713;48.388;10.928;2024-01-15T02:45:13;9.55;;;3.78;;
17193;SDS011;8713;48.388;10.928;2024-01-15T02:46:42;8.95;;;3.83;;
17193;SDS011;8713;48.388;10.928;2024-01-15T02:48:12;9.10;;;4.20;;
17193;SDS011;8713;48.388;10.928;2024-01-15T02:49:41;8.48;;;3.67;;
17193;SDS011;8713;48.388;10.928;2024-01-15T02:51:11;7.90;;;3.92;;
17193;SDS011;8713;48.388;10.928;2024-01-15T02:52:44;9.18;;;4.38;;
17193;SDS011;8713;48.388;10.928;2024-01-15T02:54:13;7.38;;;3.47;;
17193;SDS011;8713;48.388;10.928;2024-01-15T02:55:43;7.35;;;3.10;;
17193;SDS011;8713;48.388;10.928;2024-01-15T02:57:12;8.73;;;3.90;;
17193;SDS011;8713;48.388;10.928;2024-01-15T02:58:42;8.75;;;3.85;;
17193;SDS011;8713;48.388;10.928;2024-01-15T03:00:12;9.90;;;3.80;;
17193;SDS011;8713;48.388;10.928;2024-01-15T03:01:42;8.45;;;3.78;;
17193;SDS011;8713;48.388;10.928;2024-01-15T03:03:12;7.30;;;3.65;;
17193;SDS011;8713;48.388;10.928;2024-01-15T03:04:44;6.95;;;2.92;;
17193;SDS011;8713;48.388;10.928;2024-01-15T03:06:14;7.25;;;3.28;;
17193;SDS011;8713;48.388;10.928;2024-01-15T03:07:44;8.15;;;3.38;;
17193;SDS011;8713;48.388;10.928;2024-01-15T03:09:13;7.45;;;3.67;;
17193;SDS011;8713;48.388;10.928;2024-01-15T03:10:43;8.05;;;3.67;;
17193;SDS011;8713;48.388;10.928;2024-01-15T03:12:12;6.72;;;3.22;;
17193;SDS011;8713;48.388;10.928;2024-01-15T03:13:41;9.55;;;3.17;;
17193;SDS011;8713;48.388;10.928;2024-01-15T03:15:11;7.45;;;3.22;;
17193;SDS011;8713;48.388;10.928;2024-01-15T03:16:41;9.90;;;3.97;;
17193;SDS011;8713;48.388;10.928;2024-01-15T03:18:10;6.55;;;3.45;;
17193;SDS011;8713;48.388;10.928;2024-01-15T03:19:40;7.53;;;3.60;;
17193;SDS011;8713;48.388;10.928;2024-01-15T03:21:10;7.38;;;3.30;;
17193;SDS011;8713;48.388;10.928;2024-01-15T03:22:39;7.03;;;3.40;;
17193;SDS011;8713;48.388;10.928;2024-01-15T03:24:09;6.10;;;3.08;;
17193;SDS011;8713;48.388;10.928;2024-01-15T03:25:38;9.95;;;4.00;;
17193;SDS011;8713;48.388;10.928;2024-01-15T03:27:08;6.38;;;3.05;;
17193;SDS011;8713;48.388;10.928;2024-01-15T03:28:38;7.50;;;3.92;;
17193;SDS011;8713;48.388;10.928;2024-01-15T03:30:07;6.00;;;2.63;;
17193;SDS011;8713;48.388;10.928;2024-01-15T03:31:37;6.60;;;2.85;;
17193;SDS011;8713;48.388;10.928;2024-01-15T03:33:07;7.50;;;3.40;;
17193;SDS011;8713;48.388;10.928;2024-01-15T03:34:37;8.88;;;3.17;;
17193;SDS011;8713;48.388;10.928;2024-01-15T03:36:06;3.05;;;1.65;;
17193;SDS011;8713;48.388;10.928;2024-01-15T03:37:36;7.97;;;3.47;;
17193;SDS011;8713;48.388;10.928;2024-01-15T03:39:06;6.13;;;2.92;;
17193;SDS011;8713;48.388;10.928;2024-01-15T03:40:37;7.05;;;3.55;;
17193;SDS011;8713;48.388;10.928;2024-01-15T03:42:06;7.05;;;3.33;;
17193;SDS011;8713;48.388;10.928;2024-01-15T03:43:36;7.85;;;3.15;;
17193;SDS011;8713;48.388;10.928;2024-01-15T03:45:05;6.88;;;3.35;;
17193;SDS011;8713;48.388;10.928;2024-01-15T03:46:35;8.10;;;3.35;;
17193;SDS011;8713;48.388;10.928;2024-01-15T03:48:05;7.82;;;3.42;;
17193;SDS011;8713;48.388;10.928;2024-01-15T03:49:35;9.00;;;3.45;;
17193;SDS011;8713;48.388;10.928;2024-01-15T03:51:04;6.90;;;3.13;;
17193;SDS011;8713;48.388;10.928;2024-01-15T03:52:34;8.93;;;3.58;;
17193;SDS011;8713;48.388;10.928;2024-01-15T03:54:03;7.03;;;2.50;;
17193;SDS011;8713;48.388;10.928;2024-01-15T03:55:33;6.93;;;3.47;;
17193;SDS011;8713;48.388;10.928;2024-01-15T03:57:04;8.40;;;3.70;;
17193;SDS011;8713;48.388;10.928;2024-01-15T03:58:34;8.35;;;3.50;;
17193;SDS011;8713;48.388;10.928;2024-01-15T04:00:03;9.32;;;3.53;;
17193;SDS011;8713;48.388;10.928;2024-01-15T04:01:34;7.43;;;3.42;;
17193;SDS011;8713;48.388;10.928;2024-01-15T04:03:04;8.30;;;3.03;;
17193;SDS011;8713;48.388;10.928;2024-01-15T04:04:33;9.73;;;4.05;;
17193;SDS011;8713;48.388;10.928;2024-01-15T04:06:03;4.88;;;2.40;;
17193;SDS011;8713;48.388;10.928;2024-01-15T04:07:33;5.70;;;2.88;;
17193;SDS011;8713;48.388;10.928;2024-01-15T04:09:03;5.68;;;3.00;;
17193;SDS011;8713;48.388;10.928;2024-01-15T04:10:32;6.05;;;2.70;;
17193;SDS011;8713;48.388;10.928;2024-01-15T04:12:02;7.45;;;3.40;;
17193;SDS011;8713;48.388;10.928;2024-01-15T04:13:32;7.55;;;3.75;;
17193;SDS011;8713;48.388;10.928;2024-01-15T04:15:02;6.45;;;2.90;;
17193;SDS011;8713;48.388;10.928;2024-01-15T04:16:32;7.82;;;2.90;;
17193;SDS011;8713;48.388;10.928;2024-01-15T04:18:02;8.05;;;3.13;;
17193;SDS011;8713;48.388;10.928;2024-01-15T04:19:32;7.95;;;3.38;;
17193;SDS011;8713;48.388;10.928;2024-01-15T04:21:03;7.65;;;3.35;;
17193;SDS011;8713;48.388;10.928;2024-01-15T04:22:35;10.10;;;3.47;;
17193;SDS011;8713;48.388;10.928;2024-01-15T04:24:05;8.07;;;3.38;;
17193;SDS011;8713;48.388;10.928;2024-01-15T04:25:35;8.68;;;3.85;;
17193;SDS011;8713;48.388;10.928;2024-01-15T04:27:04;8.77;;;3.45;;
17193;SDS011;8713;48.388;10.928;2024-01-15T04:28:35;10.55;;;3.92;;
17193;SDS011;8713;48.388;10.928;2024-01-15T04:30:05;9.07;;;3.65;;
17193;SDS011;8713;48.388;10.928;2024-01-15T04:31:35;6.47;;;3.30;;
17193;SDS011;8713;48.388;10.928;2024-01-15T04:33:05;7.25;;;3.28;;
17193;SDS011;8713;48.388;10.928;2024-01-15T04:34:34;7.75;;;2.72;;
17193;SDS011;8713;48.388;10.928;2024-01-15T04:36:04;5.72;;;2.67;;
17193;SDS011;8713;48.388;10.928;2024-01-15T04:37:34;9.65;;;3.85;;
17193;SDS011;8713;48.388;10.928;2024-01-15T04:39:03;6.80;;;2.97;;
17193;SDS011;8713;48.388;10.928;2024-01-15T04:40:34;6.05;;;2.78;;
17193;SDS011;8713;48.388;10.928;2024-01-15T04:42:03;6.13;;;2.80;;
17193;SDS011;8713;48.388;10.928;2024-01-15T04:43:33;5.25;;;2.97;;
17193;SDS011;8713;48.388;10.928;2024-01-15T04:45:03;6.55;;;3.25;;
17193;SDS011;8713;48.388;10.928;2024-01-15T04:46:33;7.38;;;3.42;;
17193;SDS011;8713;48.388;10.928;2024-01-15T04:48:03;6.82;;;2.88;;
17193;SDS011;8713;48.388;10.928;2024-01-15T04:49:33;7.18;;;2.88;;
17193;SDS011;8713;48.388;10.928;2024-01-15T04:51:06;5.63;;;2.55;;
17193;SDS011;8713;48.388;10.928;2024-01-15T04:52:38;6.28;;;2.90;;
17193;SDS011;8713;48.388;10.928;2024-01-15T04:54:07;6.00;;;2.95;;
17193;SDS011;8713;48.388;10.928;2024-01-15T04:55:37;5.35;;;2.63;;
17193;SDS011;8713;48.388;10.928;2024-01-15T04:57:07;7.35;;;2.95;;
17193;SDS011;8713;48.388;10.928;2024-01-15T04:58:36;4.68;;;2.45;;
17193;SDS011;8713;48.388;10.928;2024-01-15T05:00:06;7.82;;;3.13;;
17193;SDS011;8713;48.388;10.928;2024-01-15T05:01:36;5.80;;;2.83;;
17193;SDS011;8713;48.388;10.928;2024-01-15T05:03:06;6.40;;;2.60;;
17193;SDS011;8713;48.388;10.928;2024-01-15T05:04:36;6.75;;;2.42;;
17193;SDS011;8713;48.388;10.928;2024-01-15T05:06:05;4.65;;;2.30;;
17193;SDS011;8713;48.388;10.928;2024-01-15T05:07:36;4.40;;;1.65;;
17193;SDS011;8713;48.388;10.928;2024-01-15T05:09:05;6.15;;;2.97;;
17193;SDS011;8713;48.388;10.928;2024-01-15T05:10:36;6.00;;;2.53;;
17193;SDS011;8713;48.388;10.928;2024-01-15T05:12:06;5.82;;;2.65;;
17193;SDS011;8713;48.388;10.928;2024-01-15T05:13:36;5.35;;;2.53;;
17193;SDS011;8713;48.388;10.928;2024-01-15T05:15:05;3.70;;;1.58;;
17193;SDS011;8713;48.388;10.928;2024-01-15T05:16:37;7.25;;;2.72;;
17193;SDS011;8713;48.388;10.928;2024-01-15T05:18:07;4.65;;;2.53;;
17193;SDS011;8713;48.388;10.928;2024-01-15T05:19:37;5.15;;;2.58;;
17193;SDS011;8713;48.388;10.928;2024-01-15T05:21:07;4.47;;;2.22;;
17193;SDS011;8713;48.388;10.928;2024-01-15T05:22:36;4.15;;;2.20;;
17193;SDS011;8713;48.388;10.928;2024-01-15T05:24:06;5.25;;;2.20;;
17193;SDS011;8713;48.388;10.928;2024-01-15T05:25:37;4.57;;;2.50;;
17193;SDS011;8713;48.388;10.928;2024-01-15T05:27:06;5.05;;;2.63;;
17193;SDS011;8713;48.388;10.928;2024-01-15T05:28:36;5.85;;;2.60;;
17193;SDS011;8713;48.388;10.928;2024-01-15T05:30:06;5.13;;;2.67;;
17193;SDS011;8713;48.388;10.928;2024-01-15T05:31:36;2.72;;;1.73;;
17193;SDS011;8713;48.388;10.928;2024-01-15T05:33:05;7.47;;;2.97;;
17193;SDS011;8713;48.388;10.928;2024-01-15T05:34:36;5.03;;;2.50;;
17193;SDS011;8713;48.388;10.928;2024-01-15T05:36:05;4.72;;;2.25;;
17193;SDS011;8713;48.388;10.928;2024-01-15T05:37:35;6.90;;;2.65;;
17193;SDS011;8713;48.388;10.928;2024-01-15T05:39:05;6.05;;;2.55;;
17193;SDS011;8713;48.388;10.928;2024-01-15T05:40:34;5.57;;;2.63;;
17193;SDS011;8713;48.388;10.928;2024-01-15T05:42:04;4.68;;;1.95;;
17193;SDS011;8713;48.388;10.928;2024-01-15T05:43:33;5.20;;;2.30;;
17193;SDS011;8713;48.388;10.928;2024-01-15T05:45:03;5.78;;;2.83;;
17193;SDS011;8713;48.388;10.928;2024-01-15T05:46:34;6.53;;;2.42;;
17193;SDS011;8713;48.388;10.928;2024-01-15T05:48:03;5.30;;;2.67;;
17193;SDS011;8713;48.388;10.928;2024-01-15T05:49:33;4.32;;;2.13;;
17193;SDS011;8713;48.388;10.928;2024-01-15T05:51:03;5.07;;;2.40;;
17193;SDS011;8713;48.388;10.928;2024-01-15T05:52:32;7.13;;;2.85;;
17193;SDS011;8713;48.388;10.928;2024-01-15T05:54:02;6.03;;;2.42;;
17193;SDS011;8713;48.388;10.928;2024-01-15T05:55:32;5.20;;;2.60;;
17193;SDS011;8713;48.388;10.928;2024-01-15T05:57:02;6.50;;;2.97;;
17193;SDS011;8713;48.388;10.928;2024-01-15T05:58:32;4.50;;;2.33;;
17193;SDS011;8713;48.388;10.928;2024-01-15T06:00:01;7.28;;;2.75;;
17193;SDS011;8713;48.388;10.928;2024-01-15T06:01:35;6.90;;;3.08;;
17193;SDS011;8713;48.388;10.928;2024-01-15T06:03:05;4.60;;;2.53;;
17193;SDS011;8713;48.388;10.928;2024-01-15T06:04:34;6.78;;;3.17;;
17193;SDS011;8713;48.388;10.928;2024-01-15T06:06:04;5.53;;;2.53;;
17193;SDS011;8713;48.388;10.928;2024-01-15T06:07:34;5.78;;;2.33;;
17193;SDS011;8713;48.388;10.928;2024-01-15T06:09:04;4.28;;;2.35;;
17193;SDS011;8713;48.388;10.928;2024-01-15T06:10:35;4.70;;;2.38;;
17193;SDS011;8713;48.388;10.928;2024-01-15T06:12:06;5.55;;;2.88;;
17193;SDS011;8713;48.388;10.928;2024-01-15T06:13:37;5.13;;;2.45;;
17193;SDS011;8713;48.388;10.928;2024-01-15T06:15:06;7.95;;;3.08;;
17193;SDS011;8713;48.388;10.928;2024-01-15T06:16:37;6.15;;;2.72;;
17193;SDS011;8713;48.388;10.928;2024-01-15T06:18:06;5.45;;;2.60;;
17193;SDS011;8713;48.388;10.928;2024-01-15T06:19:36;5.78;;;2.95;;
17193;SDS011;8713;48.388;10.928;2024-01-15T06:21:05;6.85;;;2.83;;
17193;SDS011;8713;48.388;10.928;2024-01-15T06:22:35;5.68;;;3.08;;
17193;SDS011;8713;48.388;10.928;2024-01-15T06:24:05;4.38;;;2.42;;
17193;SDS011;8713;48.388;10.928;2024-01-15T06:25:35;6.32;;;2.88;;
17193;SDS011;8713;48.388;10.928;2024-01-15T06:27:05;4.55;;;1.88;;
17193;SDS011;8713;48.388;10.928;2024-01-15T06:28:34;4.82;;;2.47;;
17193;SDS011;8713;48.388;10.928;2024-01-15T06:30:04;4.55;;;2.50;;
17193;SDS011;8713;48.388;10.928;2024-01-15T06:31:34;5.18;;;2.75;;
17193;SDS011;8713;48.388;10.928;2024-01-15T06:33:04;4.90;;;2.50;;
17193;SDS011;8713;48.388;10.928;2024-01-15T06:34:33;6.22;;;2.90;;
17193;SDS011;8713;48.388;10.928;2024-01-15T06:36:03;5.28;;;2.28;;
17193;SDS011;8713;48.388;10.928;2024-01-15T06:37:33;4.65;;;1.85;;
17193;SDS011;8713;48.388;10.928;2024-01-15T06:39:03;5.93;;;2.37;;
17193;SDS011;8713;48.388;10.928;2024-01-15T06:40:33;4.82;;;2.33;;
17193;SDS011;8713;48.388;10.928;2024-01-15T06:42:02;5.22;;;2.38;;
17193;SDS011;8713;48.388;10.928;2024-01-15T06:43:32;5.60;;;2.45;;
17193;SDS011;8713;48.388;10.928;2024-01-15T06:45:02;3.10;;;1.40;;
17193;SDS011;8713;48.388;10.928;2024-01-15T06:46:34;3.95;;;2.30;;
17193;SDS011;8713;48.388;10.928;2024-01-15T06:48:04;5.28;;;2.33;;
17193;SDS011;8713;48.388;10.928;2024-01-15T06:49:34;5.60;;;2.58;;
17193;SDS011;8713;48.388;10.928;2024-01-15T06:51:03;4.45;;;2.35;;
17193;SDS011;8713;48.388;10.928;2024-01-15T06:52:33;6.18;;;2.63;;
17193;SDS011;8713;48.388;10.928;2024-01-15T06:54:03;4.78;;;2.15;;
17193;SDS011;8713;48.388;10.928;2024-01-15T06:55:33;4.88;;;2.60;;
17193;SDS011;8713;48.388;10.928;2024-01-15T06:57:02;6.45;;;2.55;;
17193;SDS011;8713;48.388;10.928;2024-01-15T06:58:32;4.20;;;2.08;;
17193;SDS011;8713;48.388;10.928;2024-01-15T07:00:01;4.50;;;2.13;;
17193;SDS011;8713;48.388;10.928;2024-01-15T07:01:36;5.25;;;2.45;;
17193;SDS011;8713;48.388;10.928;2024-01-15T07:02:46;4.88;;;2.47;;
17193;SDS011;8713;48.388;10.928;2024-01-15T07:03:56;5.70;;;2.65;;
17193;SDS011;8713;48.388;10.928;2024-01-15T07:05:05;5.57;;;2.13;;
17193;SDS011;8713;48.388;10.928;2024-01-15T07:06:15;5.53;;;2.78;;
17193;SDS011;8713;48.388;10.928;2024-01-15T07:07:25;4.22;;;2.60;;
17193;SDS011;8713;48.388;10.928;2024-01-15T07:08:38;6.18;;;2.55;;
17193;SDS011;8713;48.388;10.928;2024-01-15T07:09:48;4.68;;;2.35;;
17193;SDS011;8713;48.388;10.928;2024-01-15T07:11:03;4.68;;;2.08;;
17193;SDS011;8713;48.388;10.928;2024-01-15T07:12:13;3.42;;;1.67;;
17193;SDS011;8713;48.388;10.928;2024-01-15T07:13:22;4.35;;;1.92;;
17193;SDS011;8713;48.388;10.928;2024-01-15T07:14:32;4.72;;;2.17;;
17193;SDS011;8713;48.388;10.928;2024-01-15T07:15:41;5.65;;;2.58;;
17193;SDS011;8713;48.388;10.928;2024-01-15T07:16:51;5.70;;;2.35;;
17193;SDS011;8713;48.388;10.928;2024-01-15T07:18:00;7.72;;;3.58;;
17193;SDS011;8713;48.388;10.928;2024-01-15T07:19:19;14.25;;;6.75;;
17193;SDS011;8713;48.388;10.928;2024-01-15T07:20:47;11.82;;;7.05;;
17193;SDS011;8713;48.388;10.928;2024-01-15T07:22:16;3.78;;;2.03;;
17193;SDS011;8713;48.388;10.928;2024-01-15T07:23:45;2.97;;;1.92;;
17193;SDS011;8713;48.388;10.928;2024-01-15T07:24:54;4.63;;;2.50;;
17193;SDS011;8713;48.388;10.928;2024-01-15T07:26:23;6.13;;;2.50;;
17193;SDS011;8713;48.388;10.928;2024-01-15T07:27:52;6.63;;;4.00;;
17193;SDS011;8713;48.388;10.928;2024-01-15T07:29:03;5.18;;;3.22;;
17193;SDS011;8713;48.388;10.928;2024-01-15T07:30:12;3.95;;;2.50;;
17193;SDS011;8713;48.388;10.928;2024-01-15T07:31:46;6.15;;;2.38;;
17193;SDS011;8713;48.388;10.928;2024-01-15T07:33:17;5.60;;;2.58;;
17193;SDS011;8713;48.388;10.928;2024-01-15T07:34:45;4.35;;;2.30;;
17193;SDS011;8713;48.388;10.928;2024-01-15T07:36:13;5.07;;;2.58;;
17193;SDS011;8713;48.388;10.928;2024-01-15T07:37:38;5.60;;;2.65;;
17193;SDS011;8713;48.388;10.928;2024-01-15T07:39:06;4.97;;;2.65;;
17193;SDS011;8713;48.388;10.928;2024-01-15T07:40:34;5.63;;;2.25;;
17193;SDS011;8713;48.388;10.928;2024-01-15T07:42:02;5.63;;;2.72;;
17193;SDS011;8713;48.388;10.928;2024-01-15T07:43:31;5.53;;;2.63;;
17193;SDS011;8713;48.388;10.928;2024-01-15T07:44:59;5.55;;;2.63;;
17193;SDS011;8713;48.388;10.928;2024-01-15T07:46:27;5.45;;;3.03;;
17193;SDS011;8713;48.388;10.928;2024-01-15T07:47:56;10.55;;;3.78;;
17193;SDS011;8713;48.388;10.928;2024-01-15T07:49:25;5.18;;;2.67;;
17193;SDS011;8713;48.388;10.928;2024-01-15T07:50:53;4.13;;;2.10;;
17193;SDS011;8713;48.388;10.928;2024-01-15T07:52:21;11.85;;;6.20;;
17193;SDS011;8713;48.388;10.928;2024-01-15T07:53:30;5.25;;;2.47;;
17193;SDS011;8713;48.388;10.928;2024-01-15T07:54:58;5.07;;;2.10;;
17193;SDS011;8713;48.388;10.928;2024-01-15T07:56:12;10.55;;;5.22;;
17193;SDS011;8713;48.388;10.928;2024-01-15T07:57:21;20.30;;;10.73;;
17193;SDS011;8713;48.388;10.928;2024-01-15T07:58:31;3.78;;;2.58;;
17193;SDS011;8713;48.388;10.928;2024-01-15T07:59:59;4.90;;;2.90;;
17193;SDS011;8713;48.388;10.928;2024-01-15T08:01:11;2.85;;;1.83;;
17193;SDS011;8713;48.388;10.928;2024-01-15T08:02:39;3.63;;;2.00;;
17193;SDS011;8713;48.388;10.928;2024-01-15T08:04:08;3.42;;;1.98;;
17193;SDS011;8713;48.388;10.928;2024-01-15T08:05:36;4.97;;;2.13;;
17193;SDS011;8713;48.388;10.928;2024-01-15T08:07:05;3.10;;;1.67;;
17193;SDS011;8713;48.388;10.928;2024-01-15T08:08:37;2.42;;;1.42;;
17193;SDS011;8713;48.388;10.928;2024-01-15T08:10:06;4.13;;;1.95;;
17193;SDS011;8713;48.388;10.928;2024-01-15T08:11:39;3.70;;;1.60;;
17193;SDS011;8713;48.388;10.928;2024-01-15T08:13:10;3.67;;;1.88;;
17193;SDS011;8713;48.388;10.928;2024-01-15T08:14:40;2.58;;;1.42;;
17193;SDS011;8713;48.388;10.928;2024-01-15T08:16:09;4.20;;;1.83;;
17193;SDS011;8713;48.388;10.928;2024-01-15T08:17:39;2.53;;;1.65;;
17193;SDS011;8713;48.388;10.928;2024-01-15T08:19:09;5.37;;;4.00;;
17193;SDS011;8713;48.388;10.928;2024-01-15T08:20:38;5.03;;;3.25;;
17193;SDS011;8713;48.388;10.928;2024-01-15T08:22:09;3.97;;;3.42;;
17193;SDS011;8713;48.388;10.928;2024-01-15T08:23:39;4.60;;;2.70;;
17193;SDS011;8713;48.388;10.928;2024-01-15T08:25:08;3.65;;;2.17;;
17193;SDS011;8713;48.388;10.928;2024-01-15T08:26:38;4.57;;;2.40;;
17193;SDS011;8713;48.388;10.928;2024-01-15T08:28:08;4.60;;;2.92;;
17193;SDS011;8713;48.388;10.928;2024-01-15T08:29:37;3.80;;;2.15;;
17193;SDS011;8713;48.388;10.928;2024-01-15T08:31:07;7.95;;;3.20;;
17193;SDS011;8713;48.388;10.928;2024-01-15T08:32:37;7.55;;;2.97;;
17193;SDS011;8713;48.388;10.928;2024-01-15T08:34:11;4.40;;;2.28;;
17193;SDS011;8713;48.388;10.928;2024-01-15T08:35:41;5.75;;;2.35;;
17193;SDS011;8713;48.388;10.928;2024-01-15T08:37:10;4.35;;;2.22;;
17193;SDS011;8713;48.388;10.928;2024-01-15T08:38:40;3.50;;;2.15;;
17193;SDS011;8713;48.388;10.928;2024-01-15T08:40:09;2.95;;;1.10;;
17193;SDS011;8713;48.388;10.928;2024-01-15T08:41:40;4.00;;;1.80;;
17193;SDS011;8713;48.388;10.928;2024-01-15T08:43:09;5.22;;;1.92;;
17193;SDS011;8713;48.388;10.928;2024-01-15T08:44:39;4.10;;;2.17;;
17193;SDS011;8713;48.388;10.928;2024-01-15T08:46:09;5.50;;;2.20;;
17193;SDS011;8713;48.388;10.928;2024-01-15T08:47:39;4.75;;;2.00;;
17193;SDS011;8713;48.388;10.928;2024-01-15T08:49:09;3.97;;;1.98;;
17193;SDS011;8713;48.388;10.928;2024-01-15T08:50:38;3.92;;;1.77;;
17193;SDS011;8713;48.388;10.928;2024-01-15T08:52:08;4.50;;;2.40;;